Time;durP1;ratioP1;P1;durP2;ratioP2;P2;SDS_P1;SDS_P2;PMS_P1;PMS_P2;Temp;Humidity;BMP_temperature;BMP_pressure;BME280_temperature;BME280_humidity;BME280_pressure;Samples;Min_cycle;Max_cycle;Signal;HPM_P1;HPM_P2
2023/06/27 00:00:57;;;;;;;;;2.00;2.00;;;;;21.85;44.16;101514.91;5078730;28;45506;-77
2023/06/27 00:03:25;;;;;;;;;3.00;3.00;;;;;21.83;44.22;101512.22;5078321;28;45735;-77
2023/06/27 00:05:51;;;;;;;;;1.00;1.00;;;;;21.74;44.02;101515.13;5059670;28;45429;-76
2023/06/27 00:08:17;;;;;;;;;1.00;1.00;;;;;21.72;44.19;101525.97;5076056;28;45455;-77
2023/06/27 00:10:43;;;;;;;;;2.33;1.00;;;;;21.61;44.63;101519.88;5079680;28;45762;-77
2023/06/27 00:13:16;;;;;;;;;1.00;1.00;;;;;21.66;44.73;101527.94;5079712;28;45393;-75
2023/06/27 00:15:42;;;;;;;;;2.33;2.33;;;;;21.70;44.48;101519.72;5078632;28;45515;-77
2023/06/27 00:18:08;;;;;;;;;2.00;2.00;;;;;21.70;44.51;101529.66;5078025;28;45514;-76
2023/06/27 00:20:35;;;;;;;;;1.00;1.00;;;;;21.70;45.04;101521.53;5078313;28;45492;-76
2023/06/27 00:23:23;;;;;;;;;2.00;2.00;;;;;21.79;44.91;101524.03;5077423;27;45477;-77
2023/06/27 00:25:48;;;;;;;;;1.33;1.33;;;;;21.70;45.12;101522.41;5059972;28;45497;-77
2023/06/27 00:28:14;;;;;;;;;2.33;1.00;;;;;21.64;45.13;101527.94;5062215;28;45471;-77
2023/06/27 00:30:39;;;;;;;;;1.00;1.00;;;;;21.53;44.78;101524.53;5061701;28;45359;-77
2023/06/27 00:33:05;;;;;;;;;2.00;2.00;;;;;21.40;45.66;101534.69;5062861;28;45513;-77
2023/06/27 00:35:33;;;;;;;;;1.00;1.00;;;;;21.40;45.34;101536.50;5077881;28;45445;-76
2023/06/27 00:38:07;;;;;;;;;1.00;1.00;;;;;21.48;45.51;101518.34;5078540;28;45485;-77
2023/06/27 00:40:32;;;;;;;;;1.00;1.00;;;;;21.44;45.71;101520.19;5077666;28;45567;-76
2023/06/27 00:42:58;;;;;;;;;2.00;2.00;;;;;21.44;45.57;101517.50;5078236;28;45624;-77
2023/06/27 00:45:26;;;;;;;;;3.67;3.67;;;;;21.48;45.42;101518.34;5059645;28;45409;-77
2023/06/27 00:47:56;;;;;;;;;1.33;1.33;;;;;21.42;45.81;101529.25;5059783;28;47141;-76
2023/06/27 00:50:23;;;;;;;;;1.33;1.00;;;;;21.30;45.44;101535.78;5058630;28;45458;-76
2023/06/27 00:52:50;;;;;;;;;2.00;2.00;;;;;21.20;46.06;101529.63;5076850;28;45913;-76
2023/06/27 00:55:16;;;;;;;;;2.00;2.00;;;;;21.16;46.40;101522.47;5057356;28;45413;-75
2023/06/27 00:57:43;;;;;;;;;1.00;1.00;;;;;21.20;46.25;101529.63;5075910;28;45474;-77
2023/06/27 01:00:13;;;;;;;;;2.00;2.00;;;;;21.23;46.33;101524.16;5075628;28;45460;-76
2023/06/27 01:02:38;;;;;;;;;2.33;2.33;;;;;21.16;46.22;101528.78;5057278;28;45482;-77
2023/06/27 01:05:06;;;;;;;;;2.00;0.67;;;;;21.22;46.51;101526.91;5076853;28;45424;-77
2023/06/27 01:07:37;;;;;;;;;3.00;1.00;;;;;21.23;46.28;101534.06;5058994;28;48418;-76
2023/06/27 01:10:13;;;;;;;;;1.67;1.67;;;;;21.24;46.32;101525.94;5075957;28;45490;-76
2023/06/27 01:12:58;;;;;;;;;2.33;2.33;;;;;21.18;46.55;101515.22;5077401;28;45476;-76
2023/06/27 01:15:26;;;;;;;;;1.00;1.00;;;;;21.17;46.48;101521.56;5077192;28;45441;-76
2023/06/27 01:17:56;;;;;;;;;5.67;1.00;;;;;21.12;46.81;101510.81;5076468;28;45427;-76
2023/06/27 01:20:22;;;;;;;;;1.00;1.00;;;;;21.17;47.01;101521.56;5078652;28;45662;-76
2023/06/27 01:22:59;;;;;;;;;3.00;3.00;;;;;21.30;47.04;101520.41;5079404;27;45542;-76
2023/06/27 01:25:27;;;;;;;;;2.00;2.00;;;;;21.09;46.90;101519.00;5080064;28;45427;-76
2023/06/27 01:27:53;;;;;;;;;2.00;2.00;;;;;21.03;47.47;101526.34;5079745;28;45430;-76
2023/06/27 01:30:19;;;;;;;;;1.33;1.33;;;;;20.97;46.95;101521.91;5080728;28;45487;-76
2023/06/27 01:33:13;;;;;;;;;1.33;1.33;;;;;21.09;46.74;101515.41;5080283;28;45753;-77
2023/06/27 01:35:50;;;;;;;;;2.00;1.33;;;;;21.03;47.01;101504.69;5055105;28;45401;-76
2023/06/27 01:38:22;;;;;;;;;3.00;1.33;;;;;20.98;47.20;101513.75;5061200;28;47150;-76
2023/06/27 01:40:52;;;;;;;;;1.00;1.00;;;;;20.92;47.63;101513.84;5079848;28;45451;-76
2023/06/27 01:43:19;;;;;;;;;2.00;2.00;;;;;20.90;47.38;101498.56;5080102;28;45353;-76
2023/06/27 01:45:45;;;;;;;;;2.00;2.00;;;;;20.89;46.86;101505.81;5062040;28;45511;-76
2023/06/27 01:48:11;;;;;;;;;3.00;2.00;;;;;20.74;47.20;101514.16;5079333;28;45490;-77
2023/06/27 01:50:37;;;;;;;;;2.00;2.00;;;;;20.65;47.56;101514.31;5079032;28;45485;-77
2023/06/27 01:53:03;;;;;;;;;2.00;2.00;;;;;20.63;48.06;101516.16;5080149;28;45402;-76
2023/06/27 01:55:29;;;;;;;;;2.50;0.75;;;;;20.52;48.16;101513.56;5061837;28;45550;-76
2023/06/27 01:57:55;;;;;;;;;2.67;2.67;;;;;20.49;47.52;101509.09;5079551;28;46314;-76
2023/06/27 02:00:20;;;;;;;;;2.00;1.00;;;;;20.48;47.83;101507.31;5061584;28;45386;-75
2023/06/27 02:02:46;;;;;;;;;6.33;5.00;;;;;20.50;48.13;101513.59;5062019;28;45486;-75
2023/06/27 02:05:11;;;;;;;;;3.00;3.00;;;;;20.50;48.05;101513.59;5079735;28;45688;-76
2023/06/27 02:07:36;;;;;;;;;2.00;2.00;;;;;20.50;48.36;101513.59;5079101;28;44974;-76
2023/06/27 02:10:02;;;;;;;;;1.33;1.00;;;;;20.51;48.20;101506.38;5060855;28;45416;-76
2023/06/27 02:12:28;;;;;;;;;1.00;1.00;;;;;20.56;48.25;101516.22;5078400;28;45542;-76
2023/06/27 02:14:53;;;;;;;;;3.00;2.00;;;;;20.60;48.28;101513.47;5078446;28;45460;-76
2023/06/27 02:17:20;;;;;;;;;2.33;2.33;;;;;20.67;48.27;101513.38;5077818;28;46829;-76
2023/06/27 02:19:45;;;;;;;;;2.67;2.67;;;;;20.63;48.39;101505.34;5061337;28;45548;-76
2023/06/27 02:22:10;;;;;;;;;2.00;2.00;;;;;20.63;48.19;101514.34;5079427;27;45698;-76
2023/06/27 02:24:36;;;;;;;;;3.67;2.33;;;;;20.62;48.28;101508.94;5060896;28;45613;-76
2023/06/27 02:27:01;;;;;;;;;2.00;2.00;;;;;20.57;48.50;101507.16;5077723;28;46901;-77
2023/06/27 02:29:28;;;;;;;;;3.33;2.00;;;;;20.50;48.64;101516.31;5060419;28;45441;-76
2023/06/27 02:31:53;;;;;;;;;2.33;2.00;;;;;20.47;49.12;101521.72;5059303;28;45391;-77
2023/06/27 02:34:18;;;;;;;;;3.33;2.00;;;;;20.50;48.76;101516.31;5061470;28;45543;-76
2023/06/27 02:36:44;;;;;;;;;3.00;3.00;;;;;20.49;49.11;101513.63;5061099;28;46972;-77
2023/06/27 02:39:16;;;;;;;;;3.00;3.00;;;;;20.63;48.88;101517.03;5061167;28;45507;-77
2023/06/27 02:41:41;;;;;;;;;3.00;3.00;;;;;20.48;49.29;101520.84;5082013;28;44794;-76
2023/06/27 02:44:07;;;;;;;;;5.00;3.00;;;;;20.42;49.96;101515.53;5060976;28;45562;-77
2023/06/27 02:46:32;;;;;;;;;2.67;2.67;;;;;20.39;49.84;101523.66;5078871;28;45549;-77
2023/06/27 02:48:57;;;;;;;;;2.67;2.67;;;;;20.38;49.87;101527.28;5078938;28;45414;-77
2023/06/27 02:51:24;;;;;;;;;2.00;2.00;;;;;20.43;50.31;101525.41;5060866;28;45394;-77
2023/06/27 02:53:49;;;;;;;;;3.00;3.00;;;;;20.27;50.25;101519.31;5078397;28;45425;-77
2023/06/27 02:56:15;;;;;;;;;2.33;1.00;;;;;20.33;50.06;101523.75;5078045;28;45339;-77
2023/06/27 02:58:40;;;;;;;;;2.67;2.67;;;;;20.31;49.90;101523.75;5078792;28;45509;-77
2023/06/27 03:01:06;;;;;;;;;2.67;2.00;;;;;20.29;49.78;101520.19;5060724;28;45391;-77
2023/06/27 03:03:33;;;;;;;;;2.00;2.00;;;;;20.39;49.90;101529.06;5079210;28;44836;-76
2023/06/27 03:06:02;;;;;;;;;2.00;2.00;;;;;20.29;50.22;101522.00;5077433;28;47182;-76
2023/06/27 03:08:29;;;;;;;;;3.67;3.67;;;;;20.33;49.91;101523.75;5079469;28;45753;-76
2023/06/27 03:10:56;;;;;;;;;3.00;3.00;;;;;20.25;50.18;101518.44;5078687;28;45473;-76
2023/06/27 03:13:22;;;;;;;;;3.00;3.00;;;;;20.17;50.54;101515.84;5079111;28;45892;-76
2023/06/27 03:15:47;;;;;;;;;3.00;3.00;;;;;20.21;50.75;101518.50;5060285;28;45571;-76
2023/06/27 03:18:12;;;;;;;;;3.33;2.33;;;;;20.18;51.01;101511.34;5078517;28;45262;-76
2023/06/27 03:20:38;;;;;;;;;2.00;2.00;;;;;20.16;50.51;101505.06;5060634;28;45105;-77
2023/06/27 03:23:03;;;;;;;;;1.67;1.67;;;;;20.13;50.37;101510.50;5080263;27;45447;-76
2023/06/27 03:25:28;;;;;;;;;3.00;3.00;;;;;20.13;50.86;101511.38;5078735;28;45449;-76
2023/06/27 03:27:55;;;;;;;;;3.67;2.67;;;;;20.10;51.46;101514.16;5060449;28;45975;-76
2023/06/27 03:30:20;;;;;;;;;3.33;3.00;;;;;19.97;51.11;101504.41;5078223;28;45453;-76
2023/06/27 03:32:46;;;;;;;;;3.33;3.33;;;;;19.98;51.02;101506.22;5080030;28;45469;-77
2023/06/27 03:35:11;;;;;;;;;3.00;3.00;;;;;19.99;51.21;101508.88;5079342;28;45427;-76
2023/06/27 03:37:37;;;;;;;;;4.00;4.00;;;;;19.95;51.09;101495.44;5078135;28;45413;-76
2023/06/27 03:40:04;;;;;;;;;3.33;1.67;;;;;19.96;51.94;101502.63;5061301;28;45736;-76
2023/06/27 03:42:30;;;;;;;;;2.00;2.00;;;;;19.84;51.79;101505.50;5078903;28;45462;-76
2023/06/27 03:44:56;;;;;;;;;4.00;3.33;;;;;19.77;51.73;101497.47;5060506;28;45416;-76
2023/06/27 03:47:23;;;;;;;;;5.67;3.33;;;;;19.82;51.54;101500.09;5078190;28;45528;-78
2023/06/27 03:49:48;;;;;;;;;2.33;2.33;;;;;19.78;52.06;101492.94;5079279;28;45748;-76
2023/06/27 03:52:13;;;;;;;;;2.67;2.67;;;;;19.83;51.91;101509.09;5059770;28;45440;-76
2023/06/27 03:54:39;;;;;;;;;2.00;2.00;;;;;19.82;51.95;101510.00;5059174;28;47740;-76
2023/06/27 03:57:04;;;;;;;;;4.67;4.00;;;;;19.88;51.98;101500.03;5077566;28;45428;-76
2023/06/27 03:59:30;;;;;;;;;3.33;2.00;;;;;19.94;51.59;101497.25;5058589;28;45566;-77
2023/06/27 04:01:55;;;;;;;;;3.33;3.33;;;;;19.94;52.08;101496.38;5077337;28;45489;-76
2023/06/27 04:04:21;;;;;;;;;3.00;3.00;;;;;19.96;51.71;101499.94;5059314;28;47877;-77
2023/06/27 04:06:46;;;;;;;;;2.00;2.00;;;;;20.01;51.96;101494.47;5077699;28;45920;-77
2023/06/27 04:09:12;;;;;;;;;4.33;3.67;;;;;20.02;52.00;101502.56;5060071;28;45532;-77
2023/06/27 04:11:37;;;;;;;;;1.33;1.00;;;;;20.00;52.49;101507.09;5079034;28;45509;-76
2023/06/27 04:14:02;;;;;;;;;2.67;2.67;;;;;19.95;52.15;101499.00;5078287;28;45788;-76
2023/06/27 04:19:49;;;;;;;;;3.00;3.00;;;;;20.08;52.17;101502.47;5078213;28;44930;-76
2023/06/27 04:22:15;;;;;;;;;4.00;3.00;;;;;20.17;51.74;101499.63;5060299;28;45464;-76
2023/06/27 04:24:40;;;;;;;;;2.00;2.00;;;;;20.17;52.60;101506.84;5078552;28;45988;-76
2023/06/27 04:27:13;;;;;;;;;4.67;3.00;;;;;20.20;52.12;101506.81;5078930;28;44848;-77
2023/06/27 04:29:39;;;;;;;;;2.67;2.67;;;;;20.23;52.02;101505.88;5078354;28;45854;-77
2023/06/27 04:32:04;;;;;;;;;2.33;2.33;;;;;20.23;52.31;101517.56;5077537;28;45563;-77
2023/06/27 04:34:30;;;;;;;;;6.00;5.00;;;;;20.23;52.25;101505.88;5058951;28;46769;-77
2023/06/27 04:36:55;;;;;;;;;5.67;4.00;;;;;20.33;52.46;101503.00;5078536;28;45456;-78
2023/06/27 04:39:21;;;;;;;;;1.33;1.33;;;;;20.43;52.19;101503.78;5060035;28;45571;-78
2023/06/27 04:41:46;;;;;;;;;4.33;4.00;;;;;20.45;52.11;101501.94;5059879;28;45491;-77
2023/06/27 04:44:11;;;;;;;;;5.00;3.00;;;;;20.43;52.09;101501.06;5059955;28;45492;-76
2023/06/27 04:46:37;;;;;;;;;2.33;2.33;;;;;20.41;52.24;101500.22;5076844;28;45474;-76
2023/06/27 04:49:05;;;;;;;;;5.33;4.00;;;;;20.50;52.52;101499.16;5076979;28;45411;-77
2023/06/27 04:54:53;;;;;;;;;6.33;5.00;;;;;20.22;52.42;101490.56;5079860;28;45427;-77
2023/06/27 04:57:18;;;;;;;;;3.67;3.00;;;;;20.26;53.05;101500.41;5081382;28;45302;-77
2023/06/27 04:59:43;;;;;;;;;3.00;3.00;;;;;20.30;53.57;101491.34;5081595;28;45393;-77
2023/06/27 05:02:09;;;;;;;;;3.00;3.00;;;;;20.32;53.49;101487.75;5080962;28;45399;-77
2023/06/27 05:04:36;;;;;;;;;3.00;2.00;;;;;20.44;54.07;101488.47;5061601;28;46105;-77
2023/06/27 05:07:04;;;;;;;;;4.00;4.00;;;;;20.38;52.99;101489.47;5061764;28;45444;-77
2023/06/27 05:09:30;;;;;;;;;3.00;3.00;;;;;20.35;53.39;101503.00;5062429;28;45481;-76
2023/06/27 05:11:55;;;;;;;;;6.00;4.00;;;;;20.35;53.57;101497.59;5062377;28;45367;-76
2023/06/27 05:14:21;;;;;;;;;4.33;4.33;;;;;20.39;53.66;101500.22;5062061;28;46881;-77
2023/06/27 05:16:46;;;;;;;;;4.00;2.00;;;;;20.46;53.83;101500.13;5061859;28;45517;-76
2023/06/27 05:19:11;;;;;;;;;6.33;4.33;;;;;20.58;54.15;101509.00;5062676;28;45390;-76
2023/06/27 05:21:40;;;;;;;;;2.00;2.00;;;;;20.59;54.13;101515.28;5081529;28;45515;-77
2023/06/27 05:24:06;;;;;;;;;6.00;4.33;;;;;20.64;54.42;101513.41;5061800;28;45590;-78
2023/06/27 05:26:38;;;;;;;;;5.33;4.67;;;;;20.63;54.42;101508.94;5080046;28;45335;-77
2023/06/27 05:29:03;;;;;;;;;3.67;3.67;;;;;20.66;54.46;101513.38;5079908;28;45867;-77
2023/06/27 05:31:28;;;;;;;;;5.33;4.00;;;;;20.74;54.54;101515.06;5081017;28;45429;-78
2023/06/27 05:33:55;;;;;;;;;5.33;3.67;;;;;20.77;54.27;101519.53;5064196;28;46668;-79
2023/06/27 05:36:21;;;;;;;;;2.33;2.33;;;;;20.65;55.25;101517.91;5062087;28;45405;-76
2023/06/27 05:38:47;;;;;;;;;4.00;3.00;;;;;20.64;55.12;101518.81;5080534;28;45752;-76
2023/06/27 05:41:19;;;;;;;;;4.00;4.00;;;;;20.74;55.02;101514.16;5062203;28;45711;-76
2023/06/27 05:43:45;;;;;;;;;3.00;3.00;;;;;20.92;55.04;101508.44;5081307;28;45517;-77
2023/06/27 05:46:11;;;;;;;;;2.00;2.00;;;;;21.06;54.76;101510.03;5082515;28;45310;-77
2023/06/27 05:48:36;;;;;;;;;2.00;2.00;;;;;21.20;54.37;101505.28;5084225;28;45402;-77
2023/06/27 05:51:01;;;;;;;;;3.00;3.00;;;;;21.31;54.73;101505.97;5083587;28;45368;-77
2023/06/27 05:53:27;;;;;;;;;3.00;3.00;;;;;21.49;54.32;101499.38;5081802;28;45341;-76
2023/06/27 05:55:52;;;;;;;;;4.00;4.00;;;;;21.66;53.76;101500.84;5079895;28;45485;-76
2023/06/27 05:58:17;;;;;;;;;2.00;2.00;;;;;21.82;53.49;101501.44;5080027;28;45449;-76
2023/06/27 06:00:43;;;;;;;;;3.00;3.00;;;;;21.93;52.76;101499.38;5079686;28;45429;-77
2023/06/27 06:03:08;;;;;;;;;4.00;3.33;;;;;21.95;53.25;101501.13;5083628;28;45481;-83
2023/06/27 06:05:33;;;;;;;;;2.33;2.33;;;;;21.98;53.09;101502.91;5074885;28;44976;-82
2023/06/27 06:07:59;;;;;;;;;4.00;4.00;;;;;22.11;53.36;101501.69;5070841;28;45355;-83
2023/06/27 06:10:25;;;;;;;;;4.67;3.33;;;;;22.20;53.05;101506.03;5091511;28;44867;-84
2023/06/27 06:12:51;;;;;;;;;6.00;4.00;;;;;22.21;52.92;101501.50;5054018;28;46661;-83
2023/06/27 06:15:17;;;;;;;;;5.00;3.00;;;;;22.29;53.02;101502.25;5070056;28;44812;-83
2023/06/27 06:17:42;;;;;;;;;5.00;3.67;;;;;22.51;52.38;101491.81;5071984;28;45782;-83
2023/06/27 06:20:11;;;;;;;;;5.00;3.00;;;;;22.64;52.62;101501.44;5069573;28;45395;-84
2023/06/27 06:22:39;;;;;;;;;4.33;3.33;;;;;22.57;52.28;101503.41;5070385;27;47222;-82
2023/06/27 06:25:05;;;;;;;;;4.00;4.00;;;;;22.43;52.39;101500.13;5071716;28;45346;-83
2023/06/27 06:27:30;;;;;;;;;3.00;3.00;;;;;22.52;52.83;101512.56;5072327;28;45505;-84
2023/06/27 06:29:57;;;;;;;;;4.00;4.00;;;;;22.47;52.50;101509.97;5091826;28;45560;-83
2023/06/27 06:32:23;;;;;;;;;3.00;3.00;;;;;22.44;52.82;101514.56;5072335;28;45365;-82
2023/06/27 06:34:48;;;;;;;;;3.00;3.00;;;;;22.48;53.15;101505.44;5073739;28;45454;-82
2023/06/27 06:37:14;;;;;;;;;1.33;0.67;;;;;22.45;52.44;101514.53;5089488;28;44678;-83
2023/06/27 06:39:41;;;;;;;;;4.67;4.67;;;;;22.43;52.91;101505.53;5072933;28;45507;-83
2023/06/27 06:42:10;;;;;;;;;4.33;4.33;;;;;22.37;53.14;101505.69;5088830;28;45661;-83
2023/06/27 06:44:36;;;;;;;;;4.33;3.00;;;;;22.33;52.90;101521.13;5087630;28;45417;-82
2023/06/27 06:47:01;;;;;;;;;4.67;4.67;;;;;22.32;52.75;101515.75;5069973;28;45936;-83
2023/06/27 06:49:27;;;;;;;;;4.33;3.33;;;;;22.35;53.43;101513.84;5089633;28;45713;-83
2023/06/27 06:51:53;;;;;;;;;4.00;4.00;;;;;22.48;53.50;101511.75;5089760;28;45350;-83
2023/06/27 06:57:43;;;;;;;;;2.00;1.00;;;;;22.87;52.27;101481.91;5094561;28;44891;-83
2023/06/27 07:00:12;;;;;;;;;5.00;4.00;;;;;23.01;51.85;101495.13;5090667;28;44897;-84
2023/06/27 07:02:37;;;;;;;;;5.00;5.00;;;;;22.91;52.10;101482.72;5064894;28;46937;-83
2023/06/27 07:05:04;;;;;;;;;7.00;6.67;;;;;23.08;52.30;101504.00;5053165;28;45422;-82
2023/06/27 07:07:31;;;;;;;;;5.00;5.00;;;;;23.09;52.85;101524.81;5065700;28;44954;-82
2023/06/27 07:10:06;;;;;;;;;5.00;5.00;;;;;22.83;52.59;101501.00;5082298;28;45283;-80
2023/06/27 07:12:31;;;;;;;;;5.00;5.00;;;;;22.69;52.97;101528.44;5056033;28;45569;-79
2023/06/27 07:14:57;;;;;;;;;5.00;4.00;;;;;22.53;53.29;101514.38;5059722;28;45581;-80
2023/06/27 07:17:22;;;;;;;;;6.00;5.33;;;;;22.51;53.51;101527.06;5044200;28;45527;-80
2023/06/27 07:19:49;;;;;;;;;5.00;4.67;;;;;22.57;54.15;101524.19;5059311;28;45495;-80
2023/06/27 07:22:21;;;;;;;;;4.33;4.33;;;;;22.50;53.96;101531.59;5066903;28;47456;-79
2023/06/27 07:24:49;;;;;;;;;5.00;5.00;;;;;22.42;53.71;101501.06;5082907;28;45546;-79
2023/06/27 07:30:48;;;;;;;;;;;;;;;;;;;;;
2023/06/27 07:33:46;;;;;;;;;;;;;;;;;;;;;
2023/06/27 07:37:04;;;;;;;;;3.00;3.00;;;;;22.95;52.78;101485.31;5078798;28;74561;-79
2023/06/27 07:39:21;;;;;;;;;3.33;3.00;;;;;23.00;52.36;101495.13;5003647;28;45523;-81
2023/06/27 07:41:47;;;;;;;;;3.67;3.67;;;;;23.24;52.47;101527.09;4982355;28;45532;-81
2023/06/27 07:44:13;;;;;;;;;2.00;2.00;;;;;23.36;51.69;101525.88;4991318;28;46900;-80
2023/06/27 07:46:38;;;;;;;;;8.00;5.33;;;;;23.34;51.39;101523.19;5004783;28;44858;-80
2023/06/27 07:49:04;;;;;;;;;4.33;4.33;;;;;23.30;51.91;101488.94;5009637;28;45977;-79
2023/06/27 07:51:31;;;;;;;;;4.00;4.00;;;;;23.67;51.50;101514.19;5002496;28;45498;-82
2023/06/27 07:54:00;;;;;;;;;4.00;4.00;;;;;23.82;51.02;101499.31;4984075;28;46837;-79
2023/06/27 07:56:25;;;;;;;;;4.33;4.33;;;;;23.99;51.10;101518.72;5000602;28;45443;-80
2023/06/27 07:58:52;;;;;;;;;3.00;2.67;;;;;24.19;49.45;101519.97;4997954;28;45428;-80
2023/06/27 08:01:18;;;;;;;;;4.67;4.00;;;;;24.02;49.61;101515.94;5000971;28;45599;-79
2023/06/27 08:03:46;;;;;;;;;4.67;4.33;;;;;24.13;49.66;101516.47;4984924;28;46078;-80
2023/06/27 08:06:15;;;;;;;;;5.00;5.00;;;;;24.16;49.73;101516.41;5006170;28;45564;-79
2023/06/27 08:08:40;;;;;;;;;7.00;5.00;;;;;24.25;48.83;101517.06;5008127;28;45770;-80
2023/06/27 08:11:09;;;;;;;;;3.33;3.33;;;;;24.31;49.34;101514.16;5004772;28;46046;-80
2023/06/27 08:13:41;;;;;;;;;5.00;2.00;;;;;24.36;48.13;101515.78;4993305;28;45321;-80
2023/06/27 08:16:06;;;;;;;;;6.00;4.00;;;;;24.35;48.07;101496.81;5033067;28;44836;-81
2023/06/27 08:18:35;;;;;;;;;2.67;2.67;;;;;24.52;48.03;101513.53;5084092;27;44893;-80
2023/06/27 08:21:00;;;;;;;;;4.00;3.00;;;;;24.40;47.62;101499.38;5073978;28;45521;-79
2023/06/27 08:23:27;;;;;;;;;2.67;2.67;;;;;24.58;47.87;101509.69;5052655;28;47232;-80
2023/06/27 08:25:53;;;;;;;;;6.00;3.67;;;;;24.69;46.65;101503.91;5072992;28;45379;-79
2023/06/27 08:28:18;;;;;;;;;2.67;2.67;;;;;24.66;46.52;101504.00;5054799;28;45901;-79
2023/06/27 08:30:46;;;;;;;;;3.00;3.00;;;;;24.54;47.09;101498.03;5061549;28;45525;-80
2023/06/27 08:33:19;;;;;;;;;5.00;3.00;;;;;24.65;46.95;101502.25;5057779;28;47071;-80
2023/06/27 08:35:54;;;;;;;;;4.67;3.00;;;;;24.79;46.80;101497.22;5075885;28;45475;-80
2023/06/27 08:38:19;;;;;;;;;9.00;6.00;;;;;24.94;46.62;101499.44;5080228;28;45615;-80
2023/06/27 08:40:55;;;;;;;;;3.00;3.00;;;;;25.15;45.06;101492.38;5051923;28;45850;-79
2023/06/27 08:50:52;;;;;;;;;3.33;2.33;;;;;25.13;45.14;101490.66;5249551;22;45603;-85
2023/06/27 08:54:35;;;;;;;;;;;;;;;;;;;;;
2023/06/27 09:03:20;;;;;;;;;8.33;8.00;;;;;25.92;43.88;101473.28;5404791;22;46783;-85
2023/06/27 09:43:15;;;;;;;;;5.33;5.33;;;;;26.42;41.82;101441.34;4637232;22;46201;-88
2023/06/27 09:46:04;;;;;;;;;3.33;3.00;;;;;26.27;41.08;101404.69;5027054;28;45335;-88
2023/06/27 09:49:42;;;;;;;;;;;;;;;;;;;;;
2023/06/27 09:52:21;;;;;;;;;;;;;;;;;;;;;
2023/06/27 09:58:32;;;;;;;;;2.33;2.33;;;;;26.35;38.99;101397.06;4837835;29;45309;-88
2023/06/27 10:01:16;;;;;;;;;3.00;3.00;;;;;26.31;39.43;101409.94;4824411;29;45370;-88
2023/06/27 10:03:49;;;;;;;;;2.25;1.25;;;;;26.28;39.92;101425.56;4835025;29;45556;-86
2023/06/27 10:06:20;;;;;;;;;6.75;2.00;;;;;26.18;39.37;101380.50;4819976;29;45819;-86
2023/06/27 10:08:46;;;;;;;;;4.00;2.67;;;;;26.16;38.98;101407.84;4895288;28;45377;-87
2023/06/27 10:14:35;;;;;;;;;3.00;3.00;;;;;26.53;39.02;101415.38;4894137;28;45536;-86
2023/06/27 10:17:02;;;;;;;;;2.67;2.67;;;;;26.43;38.58;101411.28;4899696;29;45522;-87
2023/06/27 10:19:30;;;;;;;;;2.00;2.00;;;;;26.37;37.91;101411.53;4899345;29;45564;-86
2023/06/27 10:22:35;;;;;;;;;1.00;1.00;;;;;26.26;38.28;101402.91;4894160;28;45433;-84
2023/06/27 10:25:29;;;;;;;;;5.00;3.33;;;;;26.30;38.38;101420.94;4879402;29;46814;-86
2023/06/27 10:28:16;;;;;;;;;6.00;3.00;;;;;26.22;38.55;101417.59;4867175;29;45426;-86
2023/06/27 10:30:54;;;;;;;;;5.33;2.67;;;;;26.26;38.65;101416.56;4876323;29;45813;-86
2023/06/27 10:33:50;;;;;;;;;2.33;2.00;;;;;26.11;38.35;101378.03;4893842;28;45336;-87
2023/06/27 11:37:58;;;;;;;;;1.75;1.75;;;;;28.05;34.91;101384.97;4467175;23;45265;-86
2023/06/27 11:41:35;;;;;;;;;2.50;2.00;;;;;27.91;35.47;101389.28;4890326;29;46719;-88
2023/06/27 11:44:40;;;;;;;;;2.33;2.33;;;;;27.90;35.04;101389.34;4879021;29;44997;-85
2023/06/27 11:48:14;;;;;;;;;4.00;2.00;;;;;28.06;35.58;101371.22;4892932;29;44808;-85
2023/06/27 11:51:39;;;;;;;;;0.67;0.67;;;;;28.06;35.34;101375.81;4932768;23;45614;-86
2023/06/27 11:54:44;;;;;;;;;3.67;3.67;;;;;27.80;35.15;101330.59;4857389;29;46847;-87
2023/06/27 11:57:25;;;;;;;;;3.00;3.00;;;;;27.97;35.53;101354.38;4862278;29;44683;-84
2023/06/27 12:00:54;;;;;;;;;4.67;3.33;;;;;28.05;35.08;101360.38;5225830;23;44863;-84
2023/06/27 12:04:06;;;;;;;;;;;;;;;;;;;;;
2023/06/27 12:07:00;;;;;;;;;2.75;2.75;;;;;28.12;35.11;101353.63;4854890;29;74640;-85
2023/06/27 12:09:41;;;;;;;;;;;;;;;;;;;;;
2023/06/27 12:12:08;;;;;;;;;5.25;3.50;;;;;28.25;34.82;101332.91;4860058;29;68126;-85
2023/06/27 12:15:46;;;;;;;;;;;;;;;;;;;;;
2023/06/27 12:18:37;;;;;;;;;6.00;4.67;;;;;28.41;34.25;101327.53;4858713;29;74947;-85
2023/06/27 12:21:53;;;;;;;;;2.33;2.33;;;;;28.18;34.38;101320.50;4841974;29;45452;-86
2023/06/27 12:24:25;;;;;;;;;4.33;4.33;;;;;28.29;34.88;101344.56;4777138;29;45416;-84
2023/06/27 12:28:07;;;;;;;;;;;;;;;;;;;;;
2023/06/27 12:31:04;;;;;;;;;4.33;3.33;;;;;28.45;34.54;101339.22;4767565;29;45897;-84
2023/06/27 12:33:34;;;;;;;;;3.33;3.00;;;;;28.44;34.53;101307.31;4770638;29;45970;-84
2023/06/27 12:36:34;;;;;;;;;6.33;6.33;;;;;28.79;34.35;101338.38;4821596;29;46939;-84
2023/06/27 12:39:39;;;;;;;;;2.67;1.33;;;;;28.78;33.81;101303.75;4811633;29;45800;-84
2023/06/27 12:42:43;;;;;;;;;5.67;4.00;;;;;28.95;33.07;101330.22;4820888;29;45904;-84
2023/06/27 12:45:31;;;;;;;;;4.67;3.33;;;;;28.85;33.71;101335.31;4810160;29;44869;-86
2023/06/27 13:03:51;;;;;;;;;4.33;4.00;;;;;28.61;33.01;101280.00;5007376;23;46003;-83
2023/06/27 13:50:03;;;;;;;;;3.00;3.00;;;;;31.61;31.14;101242.19;1171088;27;46039;-84
2023/06/27 13:53:13;;;;;;;;;5.00;3.25;;;;;32.78;29.76;101262.63;4765029;29;45604;-85
2023/06/27 14:06:00;;;;;;;;;3.00;3.00;;;;;37.60;25.04;101254.88;4713282;30;44880;-84
2023/06/27 14:11:53;;;;;;;;;1.67;1.67;;;;;36.87;24.39;101220.81;4728405;29;44979;-84
2023/06/27 14:15:33;;;;;;;;;3.00;2.00;;;;;36.94;24.61;101248.88;4730861;29;45591;-84
2023/06/27 14:18:01;;;;;;;;;2.33;2.33;;;;;36.94;24.54;101221.16;4676979;30;45108;-83
2023/06/27 14:20:50;;;;;;;;;;;;;;;;;;;;;
2023/06/27 14:23:17;;;;;;;;;1.33;1.33;;;;;36.43;22.90;101223.72;4726067;29;65326;-83
2023/06/27 14:25:50;;;;;;;;;1.00;1.00;;;;;36.33;23.73;101224.69;4731171;29;45406;-84
2023/06/27 14:29:41;;;;;;;;;;;;;;;;;;;;;
2023/06/27 14:32:33;;;;;;;;;3.00;3.00;;;;;37.44;23.77;101227.63;4876153;29;68033;-84
2023/06/27 14:36:04;;;;;;;;;2.00;2.00;;;;;38.69;23.19;101235.38;4865587;29;44872;-83
2023/06/27 14:38:53;;;;;;;;;3.00;3.00;;;;;39.16;22.22;101213.13;4819678;29;46116;-83
2023/06/27 14:41:26;;;;;;;;;3.33;2.67;;;;;39.12;22.48;101236.72;4747312;29;45292;-85
2023/06/27 14:43:55;;;;;;;;;4.33;2.00;;;;;38.46;22.20;101206.13;4735765;29;45371;-83
2023/06/27 14:46:30;;;;;;;;;3.00;3.00;;;;;37.27;22.17;101213.56;4750774;29;45871;-85
2023/06/27 14:49:04;;;;;;;;;1.67;1.67;;;;;37.93;23.23;101199.13;4747668;29;45318;-84
2023/06/27 14:52:08;;;;;;;;;;;;;;;;;;;;;
2023/06/27 14:54:52;;;;;;;;;1.67;1.67;;;;;41.01;20.89;101219.13;4784982;29;68005;-82
2023/06/27 14:57:53;;;;;;;;;2.00;2.00;;;;;41.47;20.04;101216.91;4781922;29;44977;-83
2023/06/27 15:01:10;;;;;;;;;1.50;1.50;;;;;41.77;20.10;101215.47;4874767;29;46853;-85
2023/06/27 15:03:40;;;;;;;;;2.00;2.00;;;;;41.99;20.21;101196.25;4870760;29;44837;-83
2023/06/27 15:06:08;;;;;;;;;2.67;0.67;;;;;42.49;19.01;101186.00;4847562;29;45581;-83
2023/06/27 15:08:34;;;;;;;;;2.67;2.67;;;;;42.89;18.70;101195.38;4859413;29;45468;-84
2023/06/27 15:11:02;;;;;;;;;2.33;2.00;;;;;42.89;19.16;101215.84;4867600;29;46556;-84
2023/06/27 15:16:55;;;;;;;;;3.00;1.00;;;;;43.83;18.12;101199.13;4878282;29;45440;-83
2023/06/27 15:19:21;;;;;;;;;2.33;2.33;;;;;44.30;18.32;101192.50;4877448;29;44793;-84
2023/06/27 15:21:57;;;;;;;;;1.33;1.00;;;;;44.96;18.12;101205.00;4863808;29;45436;-84
2023/06/27 15:24:27;;;;;;;;;3.00;3.00;;;;;45.65;17.62;101213.06;4843013;29;45550;-82
2023/06/27 15:26:54;;;;;;;;;1.00;1.00;;;;;45.72;17.06;101203.66;4871352;29;45808;-82
2023/06/27 15:32:22;;;;;;;;;2.67;2.67;;;;;45.81;15.46;101195.97;4709172;26;46762;-82
2023/06/27 15:34:50;;;;;;;;;1.33;1.33;;;;;44.63;16.86;101192.19;4880875;29;45926;-82
2023/06/27 15:37:15;;;;;;;;;2.33;2.33;;;;;44.89;16.81;101183.31;4894776;29;44800;-82
2023/06/27 15:39:40;;;;;;;;;3.00;3.00;;;;;45.70;16.78;101193.69;4880288;29;45505;-84
2023/06/27 15:42:43;;;;;;;;;3.00;3.00;;;;;46.01;15.94;101195.31;4878055;29;46891;-84